sensor_id;sensor_type;location;lat;lon;timestamp;temperature;humidity
40758;DHT22;26462;47.384;19.218;2023-09-19T00:00:39;22.20;92.80
40758;DHT22;26462;47.384;19.218;2023-09-19T00:03:09;22.20;92.90
40758;DHT22;26462;47.384;19.218;2023-09-19T00:05:37;22.20;92.80
40758;DHT22;26462;47.384;19.218;2023-09-19T00:08:05;22.20;92.80
40758;DHT22;26462;47.384;19.218;2023-09-19T00:10:33;22.10;92.80
40758;DHT22;26462;47.384;19.218;2023-09-19T00:13:04;22.10;92.90
40758;DHT22;26462;47.384;19.218;2023-09-19T00:15:41;22.10;93.00
40758;DHT22;26462;47.384;19.218;2023-09-19T00:18:08;22.10;93.00
40758;DHT22;26462;47.384;19.218;2023-09-19T00:20:37;22.10;93.10
40758;DHT22;26462;47.384;19.218;2023-09-19T00:23:05;22.10;93.10
40758;DHT22;26462;47.384;19.218;2023-09-19T00:25:35;22.10;93.20
40758;DHT22;26462;47.384;19.218;2023-09-19T00:28:05;22.10;93.20
40758;DHT22;26462;47.384;19.218;2023-09-19T00:30:36;22.00;93.20
40758;DHT22;26462;47.384;19.218;2023-09-19T00:33:05;22.10;93.40
40758;DHT22;26462;47.384;19.218;2023-09-19T00:35:34;22.00;93.40
40758;DHT22;26462;47.384;19.218;2023-09-19T00:38:01;22.00;93.50
40758;DHT22;26462;47.384;19.218;2023-09-19T00:40:30;22.00;93.70
40758;DHT22;26462;47.384;19.218;2023-09-19T00:42:58;22.00;93.80
40758;DHT22;26462;47.384;19.218;2023-09-19T00:45:29;22.00;93.90
40758;DHT22;26462;47.384;19.218;2023-09-19T00:47:56;21.90;94.00
40758;DHT22;26462;47.384;19.218;2023-09-19T00:50:26;22.00;94.20
40758;DHT22;26462;47.384;19.218;2023-09-19T00:52:55;22.00;94.40
40758;DHT22;26462;47.384;19.218;2023-09-19T00:55:25;21.90;94.50
40758;DHT22;26462;47.384;19.218;2023-09-19T00:57:56;21.90;94.60
40758;DHT22;26462;47.384;19.218;2023-09-19T01:00:24;21.90;94.70
40758;DHT22;26462;47.384;19.218;2023-09-19T01:02:51;21.90;94.80
40758;DHT22;26462;47.384;19.218;2023-09-19T01:05:19;21.90;95.30
40758;DHT22;26462;47.384;19.218;2023-09-19T01:07:46;21.90;95.20
40758;DHT22;26462;47.384;19.218;2023-09-19T01:10:18;21.90;95.30
40758;DHT22;26462;47.384;19.218;2023-09-19T01:29:46;21.90;95.90
40758;DHT22;26462;47.384;19.218;2023-09-19T01:32:17;21.90;95.90
40758;DHT22;26462;47.384;19.218;2023-09-19T01:34:52;21.90;95.80
40758;DHT22;26462;47.384;19.218;2023-09-19T01:37:21;21.90;95.90
40758;DHT22;26462;47.384;19.218;2023-09-19T01:40:04;21.90;96.00
40758;DHT22;26462;47.384;19.218;2023-09-19T01:47:56;21.90;96.20
40758;DHT22;26462;47.384;19.218;2023-09-19T01:50:38;21.90;96.30
40758;DHT22;26462;47.384;19.218;2023-09-19T01:53:25;21.80;96.30
40758;DHT22;26462;47.384;19.218;2023-09-19T01:55:55;21.80;96.50
40758;DHT22;26462;47.384;19.218;2023-09-19T01:58:46;21.80;96.50
40758;DHT22;26462;47.384;19.218;2023-09-19T02:01:22;21.80;96.60
40758;DHT22;26462;47.384;19.218;2023-09-19T02:03:50;21.80;96.70
40758;DHT22;26462;47.384;19.218;2023-09-19T02:06:18;21.70;97.00
40758;DHT22;26462;47.384;19.218;2023-09-19T02:08:46;21.80;97.00
40758;DHT22;26462;47.384;19.218;2023-09-19T02:11:14;21.70;97.10
40758;DHT22;26462;47.384;19.218;2023-09-19T02:13:42;21.70;97.20
40758;DHT22;26462;47.384;19.218;2023-09-19T02:16:11;21.70;97.20
40758;DHT22;26462;47.384;19.218;2023-09-19T02:18:39;21.70;97.30
40758;DHT22;26462;47.384;19.218;2023-09-19T02:21:06;21.70;97.30
40758;DHT22;26462;47.384;19.218;2023-09-19T02:23:33;21.70;97.30
40758;DHT22;26462;47.384;19.218;2023-09-19T02:26:01;21.60;97.40
40758;DHT22;26462;47.384;19.218;2023-09-19T02:28:28;21.60;97.40
40758;DHT22;26462;47.384;19.218;2023-09-19T02:30:58;21.60;97.50
40758;DHT22;26462;47.384;19.218;2023-09-19T02:33:25;21.60;97.50
40758;DHT22;26462;47.384;19.218;2023-09-19T02:35:56;21.60;97.70
40758;DHT22;26462;47.384;19.218;2023-09-19T02:38:28;21.50;97.80
40758;DHT22;26462;47.384;19.218;2023-09-19T02:40:56;21.50;97.90
40758;DHT22;26462;47.384;19.218;2023-09-19T02:43:23;21.50;98.00
40758;DHT22;26462;47.384;19.218;2023-09-19T02:45:51;21.50;98.10
40758;DHT22;26462;47.384;19.218;2023-09-19T02:48:20;21.50;98.20
40758;DHT22;26462;47.384;19.218;2023-09-19T02:50:51;21.50;98.40
40758;DHT22;26462;47.384;19.218;2023-09-19T02:53:19;21.50;98.50
40758;DHT22;26462;47.384;19.218;2023-09-19T02:55:49;21.40;98.50
40758;DHT22;26462;47.384;19.218;2023-09-19T02:58:16;21.40;98.50
40758;DHT22;26462;47.384;19.218;2023-09-19T03:00:46;21.40;98.70
40758;DHT22;26462;47.384;19.218;2023-09-19T03:03:15;21.40;98.70
40758;DHT22;26462;47.384;19.218;2023-09-19T03:05:46;21.40;98.80
40758;DHT22;26462;47.384;19.218;2023-09-19T03:08:17;21.40;98.80
40758;DHT22;26462;47.384;19.218;2023-09-19T03:10:47;21.40;98.90
40758;DHT22;26462;47.384;19.218;2023-09-19T03:13:17;21.40;98.90
40758;DHT22;26462;47.384;19.218;2023-09-19T03:15:45;21.40;98.90
40758;DHT22;26462;47.384;19.218;2023-09-19T03:18:17;21.30;99.10
40758;DHT22;26462;47.384;19.218;2023-09-19T03:20:55;21.20;99.10
40758;DHT22;26462;47.384;19.218;2023-09-19T03:23:23;21.30;99.30
40758;DHT22;26462;47.384;19.218;2023-09-19T03:25:50;21.30;99.40
40758;DHT22;26462;47.384;19.218;2023-09-19T03:28:20;21.30;99.40
40758;DHT22;26462;47.384;19.218;2023-09-19T03:31:03;21.30;99.40
40758;DHT22;26462;47.384;19.218;2023-09-19T03:33:32;21.30;99.40
40758;DHT22;26462;47.384;19.218;2023-09-19T03:36:02;21.30;99.30
40758;DHT22;26462;47.384;19.218;2023-09-19T03:38:33;21.30;99.50
40758;DHT22;26462;47.384;19.218;2023-09-19T03:41:02;21.30;99.30
40758;DHT22;26462;47.384;19.218;2023-09-19T03:43:31;21.30;99.50
40758;DHT22;26462;47.384;19.218;2023-09-19T03:46:01;21.30;99.40
40758;DHT22;26462;47.384;19.218;2023-09-19T03:48:32;21.20;99.60
40758;DHT22;26462;47.384;19.218;2023-09-19T03:51:01;21.20;99.70
40758;DHT22;26462;47.384;19.218;2023-09-19T03:53:29;21.20;99.80
40758;DHT22;26462;47.384;19.218;2023-09-19T03:55:56;21.20;99.60
40758;DHT22;26462;47.384;19.218;2023-09-19T03:58:24;21.30;99.70
40758;DHT22;26462;47.384;19.218;2023-09-19T04:00:55;21.20;99.70
40758;DHT22;26462;47.384;19.218;2023-09-19T04:03:24;21.20;99.90
40758;DHT22;26462;47.384;19.218;2023-09-19T04:05:55;21.20;99.90
40758;DHT22;26462;47.384;19.218;2023-09-19T04:08:22;21.20;99.90
40758;DHT22;26462;47.384;19.218;2023-09-19T04:10:49;21.20;99.90
40758;DHT22;26462;47.384;19.218;2023-09-19T04:13:18;21.20;99.90
40758;DHT22;26462;47.384;19.218;2023-09-19T04:15:45;21.20;99.90
40758;DHT22;26462;47.384;19.218;2023-09-19T04:18:13;21.20;99.90
40758;DHT22;26462;47.384;19.218;2023-09-19T04:20:41;21.20;99.90
40758;DHT22;26462;47.384;19.218;2023-09-19T04:23:08;21.20;99.90
40758;DHT22;26462;47.384;19.218;2023-09-19T04:25:37;21.20;99.90
40758;DHT22;26462;47.384;19.218;2023-09-19T04:28:04;21.10;99.90
40758;DHT22;26462;47.384;19.218;2023-09-19T04:30:33;21.10;99.90
40758;DHT22;26462;47.384;19.218;2023-09-19T04:33:01;21.10;99.90
40758;DHT22;26462;47.384;19.218;2023-09-19T04:35:32;21.20;99.90
40758;DHT22;26462;47.384;19.218;2023-09-19T04:37:59;21.20;99.90
40758;DHT22;26462;47.384;19.218;2023-09-19T04:40:27;21.20;99.90
40758;DHT22;26462;47.384;19.218;2023-09-19T04:42:54;21.20;99.90
40758;DHT22;26462;47.384;19.218;2023-09-19T04:45:28;21.20;99.90
40758;DHT22;26462;47.384;19.218;2023-09-19T04:47:56;21.20;99.90
40758;DHT22;26462;47.384;19.218;2023-09-19T04:50:23;21.20;99.90
40758;DHT22;26462;47.384;19.218;2023-09-19T04:52:53;21.20;99.90
40758;DHT22;26462;47.384;19.218;2023-09-19T04:55:21;21.20;99.90
40758;DHT22;26462;47.384;19.218;2023-09-19T04:57:50;21.20;99.90
40758;DHT22;26462;47.384;19.218;2023-09-19T05:00:19;21.20;99.90
40758;DHT22;26462;47.384;19.218;2023-09-19T05:02:50;21.20;99.90
40758;DHT22;26462;47.384;19.218;2023-09-19T05:05:18;21.20;99.90
40758;DHT22;26462;47.384;19.218;2023-09-19T05:07:46;21.20;99.90
40758;DHT22;26462;47.384;19.218;2023-09-19T05:10:14;21.20;99.90
40758;DHT22;26462;47.384;19.218;2023-09-19T05:12:42;21.20;99.90
40758;DHT22;26462;47.384;19.218;2023-09-19T05:15:12;21.20;99.90
40758;DHT22;26462;47.384;19.218;2023-09-19T05:17:39;21.20;99.90
40758;DHT22;26462;47.384;19.218;2023-09-19T05:20:07;21.20;99.90
40758;DHT22;26462;47.384;19.218;2023-09-19T05:22:43;21.00;99.90
40758;DHT22;26462;47.384;19.218;2023-09-19T05:25:10;21.00;99.90
40758;DHT22;26462;47.384;19.218;2023-09-19T05:27:38;21.00;99.90
40758;DHT22;26462;47.384;19.218;2023-09-19T05:30:05;21.00;99.90
40758;DHT22;26462;47.384;19.218;2023-09-19T05:32:34;21.00;99.90
40758;DHT22;26462;47.384;19.218;2023-09-19T05:35:01;21.00;99.90
40758;DHT22;26462;47.384;19.218;2023-09-19T05:37:28;21.00;99.90
40758;DHT22;26462;47.384;19.218;2023-09-19T05:39:56;21.00;99.90
40758;DHT22;26462;47.384;19.218;2023-09-19T05:42:24;21.00;99.90
40758;DHT22;26462;47.384;19.218;2023-09-19T05:44:51;20.80;99.90
40758;DHT22;26462;47.384;19.218;2023-09-19T05:47:18;20.80;99.90
40758;DHT22;26462;47.384;19.218;2023-09-19T05:49:45;20.80;99.90
40758;DHT22;26462;47.384;19.218;2023-09-19T05:52:15;20.70;99.90
40758;DHT22;26462;47.384;19.218;2023-09-19T05:54:43;20.60;99.90
40758;DHT22;26462;47.384;19.218;2023-09-19T05:57:10;20.70;99.90
40758;DHT22;26462;47.384;19.218;2023-09-19T05:59:39;20.80;99.90
40758;DHT22;26462;47.384;19.218;2023-09-19T06:02:07;20.70;99.90
40758;DHT22;26462;47.384;19.218;2023-09-19T06:04:34;20.70;99.90
40758;DHT22;26462;47.384;19.218;2023-09-19T06:07:01;20.60;99.90
40758;DHT22;26462;47.384;19.218;2023-09-19T06:09:30;20.70;99.90
40758;DHT22;26462;47.384;19.218;2023-09-19T06:11:58;20.70;99.90
40758;DHT22;26462;47.384;19.218;2023-09-19T06:14:30;20.60;99.90
40758;DHT22;26462;47.384;19.218;2023-09-19T06:16:57;20.70;99.90
40758;DHT22;26462;47.384;19.218;2023-09-19T06:19:24;20.60;99.90
40758;DHT22;26462;47.384;19.218;2023-09-19T06:21:53;20.50;99.90
40758;DHT22;26462;47.384;19.218;2023-09-19T06:24:23;20.50;99.90
40758;DHT22;26462;47.384;19.218;2023-09-19T06:26:50;20.40;99.90
40758;DHT22;26462;47.384;19.218;2023-09-19T06:29:17;20.50;99.90
40758;DHT22;26462;47.384;19.218;2023-09-19T06:31:44;20.60;99.90
40758;DHT22;26462;47.384;19.218;2023-09-19T06:34:11;20.40;99.90
40758;DHT22;26462;47.384;19.218;2023-09-19T06:36:42;20.50;99.90
40758;DHT22;26462;47.384;19.218;2023-09-19T06:39:10;20.30;99.90
40758;DHT22;26462;47.384;19.218;2023-09-19T06:41:38;20.40;99.90
40758;DHT22;26462;47.384;19.218;2023-09-19T06:44:10;20.30;99.90
40758;DHT22;26462;47.384;19.218;2023-09-19T06:46:37;20.50;99.90
40758;DHT22;26462;47.384;19.218;2023-09-19T06:49:06;20.40;99.90
40758;DHT22;26462;47.384;19.218;2023-09-19T06:51:33;20.30;99.90
40758;DHT22;26462;47.384;19.218;2023-09-19T06:54:02;20.30;99.90
40758;DHT22;26462;47.384;19.218;2023-09-19T06:56:29;20.30;99.90
40758;DHT22;26462;47.384;19.218;2023-09-19T06:58:56;20.30;99.90
40758;DHT22;26462;47.384;19.218;2023-09-19T07:01:23;20.30;99.90
40758;DHT22;26462;47.384;19.218;2023-09-19T07:03:51;20.30;99.90
40758;DHT22;26462;47.384;19.218;2023-09-19T07:06:19;20.20;99.90
40758;DHT22;26462;47.384;19.218;2023-09-19T07:08:46;20.30;99.90
40758;DHT22;26462;47.384;19.218;2023-09-19T07:11:13;20.20;99.90
40758;DHT22;26462;47.384;19.218;2023-09-19T07:13:40;20.30;99.90
40758;DHT22;26462;47.384;19.218;2023-09-19T07:16:08;20.20;99.90
40758;DHT22;26462;47.384;19.218;2023-09-19T07:18:37;20.20;99.90
40758;DHT22;26462;47.384;19.218;2023-09-19T07:21:04;20.20;99.90
40758;DHT22;26462;47.384;19.218;2023-09-19T07:23:33;20.20;99.90
40758;DHT22;26462;47.384;19.218;2023-09-19T07:26:01;20.00;99.90
40758;DHT22;26462;47.384;19.218;2023-09-19T07:28:32;20.10;99.90
40758;DHT22;26462;47.384;19.218;2023-09-19T07:31:03;20.00;99.90
40758;DHT22;26462;47.384;19.218;2023-09-19T07:33:32;20.10;99.90
40758;DHT22;26462;47.384;19.218;2023-09-19T07:35:59;20.10;99.90
40758;DHT22;26462;47.384;19.218;2023-09-19T07:38:28;20.10;99.90
40758;DHT22;26462;47.384;19.218;2023-09-19T07:41:04;20.10;99.90
40758;DHT22;26462;47.384;19.218;2023-09-19T07:43:32;20.30;99.90
40758;DHT22;26462;47.384;19.218;2023-09-19T07:46:07;20.10;99.90
40758;DHT22;26462;47.384;19.218;2023-09-19T07:48:36;20.20;99.90
40758;DHT22;26462;47.384;19.218;2023-09-19T07:51:08;20.10;99.90
40758;DHT22;26462;47.384;19.218;2023-09-19T07:53:35;20.20;99.90
40758;DHT22;26462;47.384;19.218;2023-09-19T07:56:08;20.30;99.90
40758;DHT22;26462;47.384;19.218;2023-09-19T07:58:39;20.30;99.90
40758;DHT22;26462;47.384;19.218;2023-09-19T08:01:08;20.30;99.90
40758;DHT22;26462;47.384;19.218;2023-09-19T08:03:37;20.30;99.90
40758;DHT22;26462;47.384;19.218;2023-09-19T08:06:09;20.40;99.90
40758;DHT22;26462;47.384;19.218;2023-09-19T08:08:37;20.50;99.90
40758;DHT22;26462;47.384;19.218;2023-09-19T08:11:05;20.50;99.90
40758;DHT22;26462;47.384;19.218;2023-09-19T08:13:40;20.40;99.90
40758;DHT22;26462;47.384;19.218;2023-09-19T08:16:11;20.20;99.90
40758;DHT22;26462;47.384;19.218;2023-09-19T08:18:38;20.40;99.90
40758;DHT22;26462;47.384;19.218;2023-09-19T08:21:08;20.40;99.90
40758;DHT22;26462;47.384;19.218;2023-09-19T08:23:40;20.50;99.90
40758;DHT22;26462;47.384;19.218;2023-09-19T08:26:08;20.50;99.90
40758;DHT22;26462;47.384;19.218;2023-09-19T08:28:36;20.40;99.90
40758;DHT22;26462;47.384;19.218;2023-09-19T08:31:05;20.30;99.90
40758;DHT22;26462;47.384;19.218;2023-09-19T08:33:33;20.30;99.90
40758;DHT22;26462;47.384;19.218;2023-09-19T08:36:05;20.30;99.90
40758;DHT22;26462;47.384;19.218;2023-09-19T08:38:34;20.40;99.90
40758;DHT22;26462;47.384;19.218;2023-09-19T08:41:05;20.40;99.90
40758;DHT22;26462;47.384;19.218;2023-09-19T08:43:34;20.30;99.90
40758;DHT22;26462;47.384;19.218;2023-09-19T08:48:33;20.10;99.90
40758;DHT22;26462;47.384;19.218;2023-09-19T08:51:10;20.20;99.90
40758;DHT22;26462;47.384;19.218;2023-09-19T08:56:20;20.10;99.90
40758;DHT22;26462;47.384;19.218;2023-09-19T08:58:57;20.20;99.90
40758;DHT22;26462;47.384;19.218;2023-09-19T09:01:29;20.20;99.90
40758;DHT22;26462;47.384;19.218;2023-09-19T09:04:00;20.10;99.90
40758;DHT22;26462;47.384;19.218;2023-09-19T09:06:29;20.10;99.90
40758;DHT22;26462;47.384;19.218;2023-09-19T09:08:57;20.10;99.90
40758;DHT22;26462;47.384;19.218;2023-09-19T09:11:24;20.20;99.90
40758;DHT22;26462;47.384;19.218;2023-09-19T09:13:52;20.20;99.90
40758;DHT22;26462;47.384;19.218;2023-09-19T09:16:19;20.10;99.90
40758;DHT22;26462;47.384;19.218;2023-09-19T09:18:47;20.10;99.90
40758;DHT22;26462;47.384;19.218;2023-09-19T09:21:22;20.00;99.90
40758;DHT22;26462;47.384;19.218;2023-09-19T09:23:52;20.00;99.90
40758;DHT22;26462;47.384;19.218;2023-09-19T09:26:43;20.00;99.90
40758;DHT22;26462;47.384;19.218;2023-09-19T09:29:13;20.00;99.90
40758;DHT22;26462;47.384;19.218;2023-09-19T09:31:45;19.90;99.90
40758;DHT22;26462;47.384;19.218;2023-09-19T09:34:13;20.00;99.90
40758;DHT22;26462;47.384;19.218;2023-09-19T09:36:41;20.00;99.90
40758;DHT22;26462;47.384;19.218;2023-09-19T09:39:08;20.10;99.90
40758;DHT22;26462;47.384;19.218;2023-09-19T09:41:45;20.20;99.90
40758;DHT22;26462;47.384;19.218;2023-09-19T09:44:14;20.40;99.90
40758;DHT22;26462;47.384;19.218;2023-09-19T09:46:47;20.60;99.90
40758;DHT22;26462;47.384;19.218;2023-09-19T09:49:35;20.90;99.90
40758;DHT22;26462;47.384;19.218;2023-09-19T09:55:04;21.10;99.90
40758;DHT22;26462;47.384;19.218;2023-09-19T09:57:33;21.10;99.90
40758;DHT22;26462;47.384;19.218;2023-09-19T10:00:04;21.10;99.90
40758;DHT22;26462;47.384;19.218;2023-09-19T10:02:40;20.90;99.90
40758;DHT22;26462;47.384;19.218;2023-09-19T10:05:19;20.70;99.90
40758;DHT22;26462;47.384;19.218;2023-09-19T10:07:48;20.80;99.90
40758;DHT22;26462;47.384;19.218;2023-09-19T10:10:33;20.90;99.90
40758;DHT22;26462;47.384;19.218;2023-09-19T10:13:14;20.90;99.90
40758;DHT22;26462;47.384;19.218;2023-09-19T10:15:49;21.10;99.90
40758;DHT22;26462;47.384;19.218;2023-09-19T10:18:23;21.20;99.90
40758;DHT22;26462;47.384;19.218;2023-09-19T10:20:51;21.40;99.90
40758;DHT22;26462;47.384;19.218;2023-09-19T10:23:20;21.50;99.90
40758;DHT22;26462;47.384;19.218;2023-09-19T10:25:51;21.50;99.90
40758;DHT22;26462;47.384;19.218;2023-09-19T10:28:20;21.40;99.90
40758;DHT22;26462;47.384;19.218;2023-09-19T10:30:51;21.20;99.90
40758;DHT22;26462;47.384;19.218;2023-09-19T10:33:21;21.10;99.90
40758;DHT22;26462;47.384;19.218;2023-09-19T10:35:50;21.00;99.90
40758;DHT22;26462;47.384;19.218;2023-09-19T10:38:24;21.10;99.90
40758;DHT22;26462;47.384;19.218;2023-09-19T10:40:56;21.10;99.90
40758;DHT22;26462;47.384;19.218;2023-09-19T10:43:32;21.20;99.90
40758;DHT22;26462;47.384;19.218;2023-09-19T10:46:06;21.20;99.90
40758;DHT22;26462;47.384;19.218;2023-09-19T10:48:34;21.20;99.90
40758;DHT22;26462;47.384;19.218;2023-09-19T10:51:12;21.40;99.90
40758;DHT22;26462;47.384;19.218;2023-09-19T10:53:54;21.40;99.90
40758;DHT22;26462;47.384;19.218;2023-09-19T10:56:29;21.30;99.90
40758;DHT22;26462;47.384;19.218;2023-09-19T10:59:15;21.20;99.90
40758;DHT22;26462;47.384;19.218;2023-09-19T11:04:39;21.30;99.90
40758;DHT22;26462;47.384;19.218;2023-09-19T11:07:11;21.20;99.90
40758;DHT22;26462;47.384;19.218;2023-09-19T11:09:56;21.30;99.90
40758;DHT22;26462;47.384;19.218;2023-09-19T11:15:08;21.40;99.90
40758;DHT22;26462;47.384;19.218;2023-09-19T11:17:43;21.60;99.90
40758;DHT22;26462;47.384;19.218;2023-09-19T11:20:16;21.90;99.90
40758;DHT22;26462;47.384;19.218;2023-09-19T11:30:46;22.50;99.90
40758;DHT22;26462;47.384;19.218;2023-09-19T11:36:05;22.30;99.90
40758;DHT22;26462;47.384;19.218;2023-09-19T11:49:27;23.00;99.90
40758;DHT22;26462;47.384;19.218;2023-09-19T11:51:58;22.60;99.90
40758;DHT22;26462;47.384;19.218;2023-09-19T11:54:27;22.60;99.90
40758;DHT22;26462;47.384;19.218;2023-09-19T11:56:59;22.60;99.90
40758;DHT22;26462;47.384;19.218;2023-09-19T11:59:29;22.60;99.90
40758;DHT22;26462;47.384;19.218;2023-09-19T12:02:07;22.30;99.90
40758;DHT22;26462;47.384;19.218;2023-09-19T12:04:37;22.30;99.70
40758;DHT22;26462;47.384;19.218;2023-09-19T12:07:09;22.50;99.90
40758;DHT22;26462;47.384;19.218;2023-09-19T12:09:49;22.80;98.70
40758;DHT22;26462;47.384;19.218;2023-09-19T12:12:24;22.60;98.10
40758;DHT22;26462;47.384;19.218;2023-09-19T12:14:55;22.40;97.70
40758;DHT22;26462;47.384;19.218;2023-09-19T12:17:36;22.40;98.20
40758;DHT22;26462;47.384;19.218;2023-09-19T12:20:03;22.50;97.70
40758;DHT22;26462;47.384;19.218;2023-09-19T12:22:41;22.70;97.80
40758;DHT22;26462;47.384;19.218;2023-09-19T12:25:11;22.90;97.30
40758;DHT22;26462;47.384;19.218;2023-09-19T12:30:11;23.10;96.80
40758;DHT22;26462;47.384;19.218;2023-09-19T12:32:53;23.10;96.00
40758;DHT22;26462;47.384;19.218;2023-09-19T12:35:30;23.10;96.10
40758;DHT22;26462;47.384;19.218;2023-09-19T12:37:59;23.20;96.10
40758;DHT22;26462;47.384;19.218;2023-09-19T12:40:26;23.30;96.30
40758;DHT22;26462;47.384;19.218;2023-09-19T12:43:00;23.10;96.60
40758;DHT22;26462;47.384;19.218;2023-09-19T12:45:32;23.00;97.30
40758;DHT22;26462;47.384;19.218;2023-09-19T12:48:20;23.10;97.30
40758;DHT22;26462;47.384;19.218;2023-09-19T12:51:08;23.30;97.20
40758;DHT22;26462;47.384;19.218;2023-09-19T12:53:42;23.50;96.10
40758;DHT22;26462;47.384;19.218;2023-09-19T12:56:15;23.50;94.90
40758;DHT22;26462;47.384;19.218;2023-09-19T12:58:50;23.60;95.50
40758;DHT22;26462;47.384;19.218;2023-09-19T13:01:18;23.50;94.20
40758;DHT22;26462;47.384;19.218;2023-09-19T13:03:45;23.40;94.00
40758;DHT22;26462;47.384;19.218;2023-09-19T13:06:13;23.30;93.70
40758;DHT22;26462;47.384;19.218;2023-09-19T13:08:43;23.20;93.70
40758;DHT22;26462;47.384;19.218;2023-09-19T13:11:17;23.40;94.70
40758;DHT22;26462;47.384;19.218;2023-09-19T13:13:49;23.40;94.60
40758;DHT22;26462;47.384;19.218;2023-09-19T13:16:21;23.40;94.50
40758;DHT22;26462;47.384;19.218;2023-09-19T13:18:52;23.40;94.30
40758;DHT22;26462;47.384;19.218;2023-09-19T13:21:31;23.20;93.80
40758;DHT22;26462;47.384;19.218;2023-09-19T13:24:23;23.10;93.70
40758;DHT22;26462;47.384;19.218;2023-09-19T13:26:53;23.00;93.80
40758;DHT22;26462;47.384;19.218;2023-09-19T13:29:20;23.00;94.00
40758;DHT22;26462;47.384;19.218;2023-09-19T13:31:48;23.10;94.40
40758;DHT22;26462;47.384;19.218;2023-09-19T13:34:16;23.20;94.30
40758;DHT22;26462;47.384;19.218;2023-09-19T13:36:45;23.30;94.00
40758;DHT22;26462;47.384;19.218;2023-09-19T13:39:12;23.50;94.10
40758;DHT22;26462;47.384;19.218;2023-09-19T13:41:47;23.50;93.10
40758;DHT22;26462;47.384;19.218;2023-09-19T13:44:15;23.60;93.40
40758;DHT22;26462;47.384;19.218;2023-09-19T13:46:44;23.50;92.70
40758;DHT22;26462;47.384;19.218;2023-09-19T13:49:14;23.50;93.10
40758;DHT22;26462;47.384;19.218;2023-09-19T13:51:42;23.50;92.90
40758;DHT22;26462;47.384;19.218;2023-09-19T13:54:11;23.60;93.10
40758;DHT22;26462;47.384;19.218;2023-09-19T13:56:42;23.50;92.60
40758;DHT22;26462;47.384;19.218;2023-09-19T13:59:09;23.50;92.70
40758;DHT22;26462;47.384;19.218;2023-09-19T14:01:37;23.50;92.00
40758;DHT22;26462;47.384;19.218;2023-09-19T14:04:04;23.40;91.80
40758;DHT22;26462;47.384;19.218;2023-09-19T14:06:33;23.30;91.60
40758;DHT22;26462;47.384;19.218;2023-09-19T14:09:00;23.30;92.20
40758;DHT22;26462;47.384;19.218;2023-09-19T14:11:28;23.20;92.20
40758;DHT22;26462;47.384;19.218;2023-09-19T14:13:56;23.00;92.40
40758;DHT22;26462;47.384;19.218;2023-09-19T14:16:23;22.90;92.90
40758;DHT22;26462;47.384;19.218;2023-09-19T14:18:51;23.00;92.90
40758;DHT22;26462;47.384;19.218;2023-09-19T14:21:19;23.00;92.10
40758;DHT22;26462;47.384;19.218;2023-09-19T14:23:49;23.10;91.90
40758;DHT22;26462;47.384;19.218;2023-09-19T14:26:16;23.10;91.60
40758;DHT22;26462;47.384;19.218;2023-09-19T14:28:45;23.10;91.40
40758;DHT22;26462;47.384;19.218;2023-09-19T14:31:12;23.10;91.90
40758;DHT22;26462;47.384;19.218;2023-09-19T14:33:39;23.20;91.90
40758;DHT22;26462;47.384;19.218;2023-09-19T14:36:08;23.20;92.00
40758;DHT22;26462;47.384;19.218;2023-09-19T14:38:39;23.30;92.20
40758;DHT22;26462;47.384;19.218;2023-09-19T14:41:07;23.30;91.80
40758;DHT22;26462;47.384;19.218;2023-09-19T14:43:37;23.40;92.40
40758;DHT22;26462;47.384;19.218;2023-09-19T14:46:05;23.40;91.90
40758;DHT22;26462;47.384;19.218;2023-09-19T14:48:34;23.30;92.50
40758;DHT22;26462;47.384;19.218;2023-09-19T14:51:02;23.20;92.60
40758;DHT22;26462;47.384;19.218;2023-09-19T14:53:30;23.20;92.80
40758;DHT22;26462;47.384;19.218;2023-09-19T14:56:03;23.20;92.40
40758;DHT22;26462;47.384;19.218;2023-09-19T14:58:31;23.20;92.90
40758;DHT22;26462;47.384;19.218;2023-09-19T15:01:06;23.10;93.30
40758;DHT22;26462;47.384;19.218;2023-09-19T15:03:35;23.10;93.00
40758;DHT22;26462;47.384;19.218;2023-09-19T15:06:09;23.00;93.20
40758;DHT22;26462;47.384;19.218;2023-09-19T15:08:37;23.00;93.20
40758;DHT22;26462;47.384;19.218;2023-09-19T15:11:08;23.00;93.60
40758;DHT22;26462;47.384;19.218;2023-09-19T15:13:35;23.00;93.70
40758;DHT22;26462;47.384;19.218;2023-09-19T15:16:07;22.90;93.80
40758;DHT22;26462;47.384;19.218;2023-09-19T15:18:38;22.90;93.80
40758;DHT22;26462;47.384;19.218;2023-09-19T15:21:08;22.90;93.80
40758;DHT22;26462;47.384;19.218;2023-09-19T15:23:37;22.80;94.40
40758;DHT22;26462;47.384;19.218;2023-09-19T15:26:06;22.90;94.50
40758;DHT22;26462;47.384;19.218;2023-09-19T15:28:34;22.80;94.20
40758;DHT22;26462;47.384;19.218;2023-09-19T15:31:03;22.80;94.40
40758;DHT22;26462;47.384;19.218;2023-09-19T15:33:32;22.80;94.90
40758;DHT22;26462;47.384;19.218;2023-09-19T15:36:03;22.80;94.30
40758;DHT22;26462;47.384;19.218;2023-09-19T15:38:55;22.70;94.40
40758;DHT22;26462;47.384;19.218;2023-09-19T15:41:20;22.80;94.30
40758;DHT22;26462;47.384;19.218;2023-09-19T15:43:48;22.80;94.50
40758;DHT22;26462;47.384;19.218;2023-09-19T15:46:16;22.80;94.20
40758;DHT22;26462;47.384;19.218;2023-09-19T15:48:43;22.80;93.90
40758;DHT22;26462;47.384;19.218;2023-09-19T15:51:12;22.80;93.60
40758;DHT22;26462;47.384;19.218;2023-09-19T15:53:46;22.70;93.20
40758;DHT22;26462;47.384;19.218;2023-09-19T15:56:17;22.60;93.10
40758;DHT22;26462;47.384;19.218;2023-09-19T15:58:46;22.60;92.90
40758;DHT22;26462;47.384;19.218;2023-09-19T16:01:14;22.50;93.10
40758;DHT22;26462;47.384;19.218;2023-09-19T16:03:47;22.50;93.10
40758;DHT22;26462;47.384;19.218;2023-09-19T16:06:17;22.50;93.30
40758;DHT22;26462;47.384;19.218;2023-09-19T16:08:48;22.40;93.40
40758;DHT22;26462;47.384;19.218;2023-09-19T16:11:17;22.40;93.80
40758;DHT22;26462;47.384;19.218;2023-09-19T16:13:45;22.30;93.60
40758;DHT22;26462;47.384;19.218;2023-09-19T16:16:14;22.30;93.40
40758;DHT22;26462;47.384;19.218;2023-09-19T16:18:48;22.20;93.10
40758;DHT22;26462;47.384;19.218;2023-09-19T16:21:16;22.20;93.30
40758;DHT22;26462;47.384;19.218;2023-09-19T16:23:45;22.10;92.90
40758;DHT22;26462;47.384;19.218;2023-09-19T16:26:14;22.10;93.10
40758;DHT22;26462;47.384;19.218;2023-09-19T16:28:44;22.00;92.90
40758;DHT22;26462;47.384;19.218;2023-09-19T16:31:12;22.00;93.10
40758;DHT22;26462;47.384;19.218;2023-09-19T16:33:42;21.90;93.20